sim
Sign-in with your pilot id or email,
or register
Callsign
Passwort

Schedule Details

Flight Number: RYR9086 (2)
Departure: Alicante Airport (LEAL) at 11:10
Arrival: Gothenburg Landvetter Airport (ESGG) at 14:55
Route: Ryanair Passenger Schedule. Enter filed route here before submitting Pirep.

Weather Information
Getting current METAR information for LEAL 200200Z 32005KT CAVOK 16/13 Q1018 NOSIG
Getting current METAR information for ESGG 200150Z 14009KT 9999 FEW024 BKN044 04/02 Q1015

Schedule Frequency

Route Map